createdAt,value
2023-08-09T00:00:09.434Z,100.00
2023-08-09T00:02:57.619Z,100.00
2023-08-09T00:05:25.896Z,100.00
2023-08-09T00:07:54.404Z,100.00
2023-08-09T00:10:22.881Z,100.00
2023-08-09T00:12:51.061Z,100.00
2023-08-09T00:15:19.727Z,100.00
2023-08-09T00:17:48.585Z,100.00
2023-08-09T00:20:16.759Z,100.00
2023-08-09T00:22:44.849Z,100.00
2023-08-09T00:25:13.213Z,100.00
2023-08-09T00:27:43.633Z,100.00
2023-08-09T00:30:12.212Z,100.00
2023-08-09T00:32:40.694Z,100.00
2023-08-09T00:35:13.371Z,100.00
2023-08-09T00:37:41.438Z,100.00
2023-08-09T00:40:13.601Z,100.00
2023-08-09T00:42:42.780Z,100.00
2023-08-09T00:45:11.235Z,100.00
2023-08-09T00:47:39.587Z,100.00
2023-08-09T00:50:08.773Z,100.00
2023-08-09T00:52:37.467Z,100.00
2023-08-09T00:55:06.196Z,100.00
2023-08-09T00:57:34.306Z,100.00
2023-08-09T01:00:02.617Z,100.00
2023-08-09T01:02:30.809Z,100.00
2023-08-09T01:04:59.727Z,100.00
2023-08-09T01:07:30.896Z,100.00
2023-08-09T01:10:24.279Z,100.00
2023-08-09T01:13:02.817Z,100.00
2023-08-09T01:15:34.768Z,100.00
2023-08-09T01:18:05.542Z,100.00
2023-08-09T01:20:35.707Z,100.00
2023-08-09T01:23:07.095Z,100.00
2023-08-09T01:25:35.256Z,100.00
2023-08-09T01:28:05.235Z,100.00
2023-08-09T01:30:33.534Z,100.00
2023-08-09T01:33:02.131Z,100.00
2023-08-09T01:35:36.059Z,100.00
2023-08-09T01:38:11.154Z,100.00
2023-08-09T01:40:40.723Z,100.00
2023-08-09T01:43:09.437Z,100.00
2023-08-09T01:45:38.801Z,100.00
2023-08-09T01:48:09.272Z,100.00
2023-08-09T01:50:38.922Z,100.00
2023-08-09T01:53:07.254Z,100.00
2023-08-09T01:55:35.471Z,100.00
2023-08-09T01:58:04.258Z,100.00
2023-08-09T02:00:33.464Z,100.00
2023-08-09T02:03:01.691Z,100.00
2023-08-09T02:05:29.959Z,100.00
2023-08-09T02:07:58.073Z,100.00
2023-08-09T02:10:26.152Z,100.00
2023-08-09T02:12:54.740Z,100.00
2023-08-09T02:15:23.283Z,100.00
2023-08-09T02:17:51.574Z,100.00
2023-08-09T02:20:21.230Z,100.00
2023-08-09T02:22:50.555Z,100.00
2023-08-09T02:25:19.290Z,100.00
2023-08-09T02:27:48.260Z,100.00
2023-08-09T02:30:17.233Z,100.00
2023-08-09T02:32:45.650Z,100.00
2023-08-09T02:35:13.803Z,100.00
2023-08-09T02:37:42.253Z,100.00
2023-08-09T02:40:12.391Z,100.00
2023-08-09T02:42:40.834Z,100.00
2023-08-09T02:45:12.284Z,100.00
2023-08-09T02:47:40.670Z,100.00
2023-08-09T02:50:09.186Z,100.00
2023-08-09T02:52:37.637Z,100.00
2023-08-09T02:55:08.189Z,100.00
2023-08-09T02:57:36.422Z,100.00
2023-08-09T03:00:05.461Z,100.00
2023-08-09T03:02:34.267Z,100.00
2023-08-09T03:05:05.336Z,100.00
2023-08-09T03:07:34.061Z,100.00
2023-08-09T03:10:05.264Z,100.00
2023-08-09T03:12:33.566Z,100.00
2023-08-09T03:15:02.724Z,100.00
2023-08-09T03:17:32.363Z,100.00
2023-08-09T03:20:03.042Z,100.00
2023-08-09T03:22:31.456Z,100.00
2023-08-09T03:25:00.592Z,100.00
2023-08-09T03:27:29.056Z,100.00
2023-08-09T03:29:58.175Z,100.00
2023-08-09T03:32:28.752Z,100.00
2023-08-09T03:34:57.173Z,100.00
2023-08-09T03:37:26.208Z,100.00
2023-08-09T03:39:54.559Z,100.00
2023-08-09T03:42:22.703Z,100.00
2023-08-09T03:44:51.046Z,100.00
2023-08-09T03:47:19.177Z,100.00
2023-08-09T03:49:48.293Z,100.00
2023-08-09T03:52:16.532Z,100.00
2023-08-09T03:54:44.659Z,100.00
2023-08-09T03:57:13.761Z,100.00
2023-08-09T03:59:43.645Z,100.00
2023-08-09T04:02:12.509Z,100.00
2023-08-09T04:04:40.623Z,100.00
2023-08-09T04:07:08.887Z,100.00
2023-08-09T04:09:37.462Z,100.00
2023-08-09T04:12:06.275Z,100.00
2023-08-09T04:14:34.480Z,100.00
2023-08-09T04:17:02.868Z,100.00
2023-08-09T04:19:32.639Z,100.00
2023-08-09T04:22:00.857Z,100.00
2023-08-09T04:24:29.188Z,100.00
2023-08-09T04:26:57.290Z,100.00
2023-08-09T04:29:25.468Z,100.00
2023-08-09T04:31:53.734Z,100.00
2023-08-09T04:34:21.787Z,100.00
2023-08-09T04:36:49.856Z,100.00
2023-08-09T04:39:18.467Z,100.00
2023-08-09T04:41:46.462Z,100.00
2023-08-09T04:44:14.501Z,100.00
2023-08-09T04:46:42.800Z,100.00
2023-08-09T04:49:10.849Z,100.00
2023-08-09T04:51:39.412Z,100.00
2023-08-09T04:54:07.778Z,100.00
2023-08-09T04:56:36.138Z,100.00
2023-08-09T04:59:05.061Z,100.00
2023-08-09T05:01:34.254Z,100.00
2023-08-09T05:04:02.437Z,100.00
2023-08-09T05:06:30.607Z,100.00
2023-08-09T05:08:58.886Z,100.00
2023-08-09T05:11:26.974Z,100.00
2023-08-09T05:13:55.153Z,100.00
2023-08-09T05:16:26.103Z,100.00
2023-08-09T05:18:54.724Z,100.00
2023-08-09T05:21:23.055Z,100.00
2023-08-09T05:23:51.335Z,100.00
2023-08-09T05:26:19.761Z,100.00
2023-08-09T05:28:47.949Z,100.00
2023-08-09T05:31:16.282Z,100.00
2023-08-09T05:33:44.752Z,100.00
2023-08-09T05:36:13.073Z,100.00
2023-08-09T05:38:41.466Z,100.00
2023-08-09T05:41:09.717Z,100.00
2023-08-09T05:43:38.759Z,100.00
2023-08-09T05:46:07.309Z,100.00
2023-08-09T05:48:35.734Z,100.00
2023-08-09T05:51:04.140Z,100.00
2023-08-09T05:53:32.514Z,100.00
2023-08-09T05:56:00.961Z,100.00
2023-08-09T05:58:29.690Z,100.00
2023-08-09T06:00:58.683Z,100.00
2023-08-09T06:03:27.018Z,100.00
2023-08-09T06:05:56.658Z,100.00
2023-08-09T06:08:25.115Z,100.00
2023-08-09T06:10:54.448Z,100.00
2023-08-09T06:13:23.072Z,100.00
2023-08-09T06:15:51.746Z,100.00
2023-08-09T06:18:20.474Z,100.00
2023-08-09T06:20:49.888Z,100.00
2023-08-09T06:23:18.914Z,100.00
2023-08-09T06:25:49.224Z,100.00
2023-08-09T06:28:18.941Z,100.00
2023-08-09T06:30:47.628Z,100.00
2023-08-09T06:33:16.537Z,100.00
2023-08-09T06:35:45.184Z,100.00
2023-08-09T06:38:15.835Z,100.00
2023-08-09T06:40:44.986Z,100.00
2023-08-09T06:43:13.560Z,100.00
2023-08-09T06:45:43.570Z,100.00
2023-08-09T06:48:12.138Z,100.00
2023-08-09T06:50:41.278Z,100.00
2023-08-09T06:53:09.626Z,100.00
2023-08-09T06:55:37.902Z,100.00
2023-08-09T06:58:06.223Z,100.00
2023-08-09T07:00:34.674Z,100.00
2023-08-09T07:03:03.518Z,100.00
2023-08-09T07:05:32.080Z,100.00
2023-08-09T07:08:02.142Z,100.00
2023-08-09T07:10:30.794Z,100.00
2023-08-09T07:12:59.377Z,100.00
2023-08-09T07:15:28.880Z,100.00
2023-08-09T07:17:57.340Z,100.00
2023-08-09T07:20:25.860Z,100.00
2023-08-09T07:22:54.212Z,100.00
2023-08-09T07:25:23.468Z,100.00
2023-08-09T07:27:51.859Z,100.00
2023-08-09T07:30:20.375Z,100.00
2023-08-09T07:32:49.279Z,100.00
2023-08-09T07:35:18.734Z,100.00
2023-08-09T07:37:49.523Z,100.00
2023-08-09T07:40:18.135Z,100.00
2023-08-09T07:42:46.551Z,100.00
2023-08-09T07:45:14.814Z,100.00
2023-08-09T07:47:44.849Z,100.00
2023-08-09T07:50:13.696Z,100.00
2023-08-09T07:52:43.252Z,100.00
2023-08-09T07:55:11.815Z,100.00
2023-08-09T07:57:41.315Z,100.00
2023-08-09T08:00:15.728Z,100.00
2023-08-09T08:02:48.221Z,100.00
2023-08-09T08:05:17.043Z,100.00
2023-08-09T08:07:45.588Z,100.00
2023-08-09T08:10:17.222Z,100.00
2023-08-09T08:12:47.369Z,100.00
2023-08-09T08:15:17.315Z,100.00
2023-08-09T08:17:47.949Z,100.00
2023-08-09T08:20:20.876Z,100.00
2023-08-09T08:22:51.120Z,100.00
2023-08-09T08:25:23.404Z,100.00
2023-08-09T08:27:51.783Z,100.00
2023-08-09T08:30:22.593Z,100.00
2023-08-09T08:32:52.852Z,100.00
2023-08-09T08:35:22.103Z,96.71
2023-08-09T08:37:51.650Z,100.00
2023-08-09T08:40:22.813Z,100.00
2023-08-09T08:42:52.541Z,98.97
2023-08-09T08:45:22.062Z,99.52
2023-08-09T08:47:51.838Z,98.04
2023-08-09T08:50:20.924Z,99.52
2023-08-09T08:52:50.605Z,99.52
2023-08-09T08:55:19.123Z,100.00
2023-08-09T08:57:48.628Z,100.00
2023-08-09T09:02:50.920Z,100.00
2023-08-09T09:05:20.298Z,100.00
2023-08-09T09:07:52.978Z,100.00
2023-08-09T09:10:24.050Z,100.00
2023-08-09T09:12:59.883Z,100.00
2023-08-09T09:15:29.249Z,100.00
2023-08-09T09:17:57.902Z,100.00
2023-08-09T09:20:35.121Z,93.07
2023-08-09T09:23:04.145Z,98.02
2023-08-09T09:25:32.957Z,99.33
2023-08-09T09:28:01.640Z,98.54
2023-08-09T09:30:33.430Z,99.23
2023-08-09T09:33:06.333Z,97.99
2023-08-09T09:35:35.136Z,97.78
2023-08-09T09:38:06.685Z,99.93
2023-08-09T09:40:38.327Z,100.00
2023-08-09T09:43:07.202Z,90.80
2023-08-09T09:45:38.746Z,96.75
2023-08-09T09:48:19.908Z,100.00
2023-08-09T09:50:50.517Z,99.49
2023-08-09T09:53:21.364Z,96.45
2023-08-09T09:55:51.015Z,90.26
2023-08-09T09:58:19.436Z,89.49
2023-08-09T10:00:53.893Z,96.85
2023-08-09T10:03:27.629Z,100.00
2023-08-09T10:05:59.695Z,99.43
2023-08-09T10:08:29.063Z,99.59
2023-08-09T10:10:59.554Z,97.22
2023-08-09T10:13:30.894Z,95.94
2023-08-09T10:16:03.663Z,97.97
2023-08-09T10:18:45.416Z,95.81
2023-08-09T10:21:17.960Z,87.45
2023-08-09T10:23:57.664Z,85.04
2023-08-09T10:26:31.357Z,82.88
2023-08-09T10:29:08.418Z,80.10
2023-08-09T10:31:48.429Z,79.02
2023-08-09T10:34:18.252Z,75.30
2023-08-09T10:36:52.356Z,74.72
2023-08-09T10:39:23.257Z,69.51
2023-08-09T10:41:55.985Z,71.00
2023-08-09T10:44:53.656Z,68.15
2023-08-09T10:47:26.432Z,69.41
2023-08-09T10:49:54.979Z,61.42
2023-08-09T10:52:52.472Z,57.69
2023-08-09T10:55:21.516Z,60.52
2023-08-09T10:57:51.778Z,57.99
2023-08-09T11:00:22.340Z,60.12
2023-08-09T11:02:54.516Z,59.75
2023-08-09T11:05:23.987Z,63.04
2023-08-09T11:07:55.339Z,58.21
2023-08-09T11:10:50.054Z,55.60
2023-08-09T11:13:20.304Z,57.31
2023-08-09T11:15:52.036Z,61.87
2023-08-09T11:18:20.836Z,62.51
2023-08-09T11:20:49.371Z,57.37
2023-08-09T11:23:18.068Z,57.83
2023-08-09T11:25:47.772Z,54.09
2023-08-09T11:28:16.573Z,52.26
2023-08-09T11:30:47.112Z,53.89
2023-08-09T11:33:15.559Z,54.52
2023-08-09T11:35:45.775Z,54.00
2023-08-09T11:38:16.752Z,54.06
2023-08-09T11:40:54.112Z,52.75
2023-08-09T11:43:23.327Z,54.21
2023-08-09T11:45:55.517Z,52.32
2023-08-09T11:48:35.900Z,54.60
2023-08-09T11:51:09.059Z,56.16
2023-08-09T11:53:39.198Z,58.30
2023-08-09T11:56:22.916Z,55.67
2023-08-09T11:58:54.023Z,55.05
2023-08-09T12:01:25.484Z,56.21
2023-08-09T12:03:56.833Z,58.39
2023-08-09T12:06:44.456Z,58.88
2023-08-09T12:09:32.444Z,62.18
2023-08-09T12:12:35.693Z,62.87
2023-08-09T12:15:04.576Z,62.09
2023-08-09T12:17:34.234Z,57.74
2023-08-09T12:20:06.283Z,55.48
2023-08-09T12:22:34.984Z,56.46
2023-08-09T12:25:04.715Z,54.72
2023-08-09T12:27:33.288Z,55.19
2023-08-09T12:30:02.857Z,57.74
2023-08-09T12:32:31.469Z,56.31
2023-08-09T12:35:00.196Z,52.54
2023-08-09T12:37:29.226Z,54.76
2023-08-09T12:39:57.757Z,56.51
2023-08-09T12:42:26.337Z,55.78
2023-08-09T12:44:54.737Z,56.05
2023-08-09T12:47:23.508Z,53.08
2023-08-09T12:49:52.139Z,54.25
2023-08-09T12:52:20.737Z,52.78
2023-08-09T12:54:50.018Z,53.07
2023-08-09T12:57:19.246Z,52.10
2023-08-09T12:59:47.552Z,53.41
2023-08-09T13:02:16.041Z,54.72
2023-08-09T13:04:44.521Z,56.26
2023-08-09T13:07:13.023Z,58.12
2023-08-09T13:09:41.447Z,57.56
2023-08-09T13:12:11.554Z,56.59
2023-08-09T13:14:40.348Z,57.60
2023-08-09T13:17:08.733Z,60.31
2023-08-09T13:19:38.089Z,61.32
2023-08-09T13:22:07.976Z,58.59
2023-08-09T13:24:36.539Z,55.59
2023-08-09T13:27:05.747Z,55.96
2023-08-09T13:29:34.799Z,57.97
2023-08-09T13:32:03.613Z,56.07
2023-08-09T13:34:32.091Z,55.92
2023-08-09T13:37:00.892Z,57.33
2023-08-09T13:39:31.427Z,56.11
2023-08-09T13:41:59.927Z,57.41
2023-08-09T13:44:28.713Z,61.17
2023-08-09T13:46:57.203Z,57.86
2023-08-09T13:49:25.583Z,55.56
2023-08-09T13:51:54.073Z,55.58
2023-08-09T13:54:22.572Z,55.00
2023-08-09T13:56:51.052Z,55.20
2023-08-09T13:59:19.598Z,58.42
2023-08-09T14:01:48.313Z,54.34
2023-08-09T14:04:16.660Z,53.14
2023-08-09T14:06:45.886Z,55.03
2023-08-09T14:09:15.150Z,56.60
2023-08-09T14:11:43.532Z,56.29
2023-08-09T14:14:11.969Z,56.12
2023-08-09T14:16:40.201Z,54.40
2023-08-09T14:19:09.507Z,53.88
2023-08-09T14:21:37.916Z,53.75
2023-08-09T14:24:07.454Z,53.71
2023-08-09T14:26:36.681Z,53.81
2023-08-09T14:29:07.836Z,55.50
2023-08-09T14:31:36.216Z,53.61
2023-08-09T14:34:04.767Z,54.78
2023-08-09T14:36:33.136Z,56.79
2023-08-09T14:39:01.677Z,55.93
2023-08-09T14:41:30.294Z,56.31
2023-08-09T14:43:58.571Z,54.51
2023-08-09T14:46:26.854Z,53.15
2023-08-09T14:49:10.308Z,52.66
2023-08-09T14:51:40.736Z,53.83
2023-08-09T14:54:09.030Z,55.79
2023-08-09T14:56:37.320Z,58.24
2023-08-09T14:59:05.955Z,56.93
2023-08-09T15:01:34.417Z,56.83
2023-08-09T15:04:02.790Z,59.44
2023-08-09T15:06:31.043Z,60.69
2023-08-09T15:08:59.369Z,59.73
2023-08-09T15:11:27.515Z,59.67
2023-08-09T15:13:55.747Z,59.56
2023-08-09T15:16:24.380Z,62.43
2023-08-09T15:18:53.956Z,62.69
2023-08-09T15:21:22.410Z,60.13
2023-08-09T15:23:50.970Z,59.65
2023-08-09T15:26:19.255Z,61.43
2023-08-09T15:28:47.537Z,63.90
2023-08-09T15:31:15.846Z,65.42
2023-08-09T15:33:44.243Z,66.70
2023-08-09T15:36:12.680Z,68.88
2023-08-09T15:38:40.995Z,71.80
2023-08-09T15:41:09.186Z,70.12
2023-08-09T15:43:37.471Z,66.46
2023-08-09T15:46:05.709Z,65.11
2023-08-09T15:48:33.981Z,63.68
2023-08-09T15:51:05.064Z,67.65
2023-08-09T15:53:33.256Z,67.74
2023-08-09T15:56:02.361Z,69.66
2023-08-09T15:58:30.612Z,71.09
2023-08-09T16:00:58.953Z,72.09
2023-08-09T16:03:27.779Z,74.11
2023-08-09T16:05:56.193Z,75.54
2023-08-09T16:08:25.960Z,75.68
2023-08-09T16:10:55.276Z,77.54
2023-08-09T16:13:24.681Z,76.51
2023-08-09T16:15:52.865Z,76.29
2023-08-09T16:18:21.658Z,75.81
2023-08-09T16:20:50.339Z,76.58
2023-08-09T16:23:19.036Z,78.15
2023-08-09T16:25:47.499Z,76.89
2023-08-09T16:28:19.115Z,78.06
2023-08-09T16:30:47.288Z,78.87
2023-08-09T16:33:15.452Z,80.12
2023-08-09T16:35:43.878Z,81.11
2023-08-09T16:38:12.275Z,78.13
2023-08-09T16:40:40.706Z,77.25
2023-08-09T16:43:08.954Z,78.76
2023-08-09T16:45:37.042Z,79.10
2023-08-09T16:48:05.456Z,79.29
2023-08-09T16:50:35.751Z,81.51
2023-08-09T16:53:05.514Z,82.65
2023-08-09T16:55:34.497Z,83.02
2023-08-09T16:58:02.885Z,85.00
2023-08-09T17:00:31.182Z,88.83
2023-08-09T17:02:59.215Z,93.44
2023-08-09T17:05:27.512Z,95.36
2023-08-09T17:07:57.021Z,93.38
2023-08-09T17:10:27.820Z,94.79
2023-08-09T17:12:56.204Z,97.43
2023-08-09T17:15:25.118Z,99.04
2023-08-09T17:17:53.814Z,100.00
2023-08-09T17:20:22.459Z,100.00
2023-08-09T17:22:52.533Z,100.00
2023-08-09T17:25:20.613Z,100.00
2023-08-09T17:27:48.871Z,100.00
2023-08-09T17:30:17.262Z,100.00
2023-08-09T17:32:46.063Z,100.00
2023-08-09T17:35:15.091Z,100.00
2023-08-09T17:37:44.287Z,100.00
2023-08-09T17:40:13.256Z,100.00
2023-08-09T17:42:43.256Z,100.00
2023-08-09T17:45:12.979Z,100.00
2023-08-09T17:47:41.109Z,100.00
2023-08-09T17:50:09.992Z,100.00
2023-08-09T17:52:38.265Z,100.00
2023-08-09T17:55:06.874Z,100.00
2023-08-09T17:57:44.380Z,100.00
2023-08-09T18:00:15.198Z,100.00
2023-08-09T18:02:44.692Z,100.00
2023-08-09T18:05:15.932Z,100.00
2023-08-09T18:07:46.212Z,100.00
2023-08-09T18:10:16.585Z,100.00
2023-08-09T18:12:45.281Z,100.00
2023-08-09T18:15:13.546Z,100.00
2023-08-09T18:17:41.757Z,100.00
2023-08-09T18:20:13.327Z,100.00
2023-08-09T18:22:47.567Z,100.00
2023-08-09T18:25:17.116Z,100.00
2023-08-09T18:27:45.288Z,100.00
2023-08-09T18:30:14.476Z,100.00
2023-08-09T18:32:43.432Z,100.00
2023-08-09T18:35:18.146Z,100.00
2023-08-09T18:37:47.697Z,100.00
2023-08-09T18:40:17.148Z,100.00
2023-08-09T18:42:47.023Z,100.00
2023-08-09T18:45:17.005Z,100.00
2023-08-09T18:47:45.786Z,100.00
2023-08-09T18:50:14.846Z,100.00
2023-08-09T18:52:47.430Z,100.00
2023-08-09T18:55:18.636Z,100.00
2023-08-09T18:57:47.846Z,100.00
2023-08-09T19:00:17.209Z,100.00
2023-08-09T19:02:46.524Z,100.00
2023-08-09T19:05:15.987Z,100.00
2023-08-09T19:07:44.639Z,100.00
2023-08-09T19:10:13.815Z,100.00
2023-08-09T19:12:42.905Z,100.00
2023-08-09T19:15:11.389Z,100.00
2023-08-09T19:17:39.776Z,100.00
2023-08-09T19:20:08.598Z,100.00
2023-08-09T19:22:37.659Z,100.00
2023-08-09T19:25:06.797Z,100.00
2023-08-09T19:27:34.917Z,100.00
2023-08-09T19:30:03.192Z,100.00
2023-08-09T19:32:31.411Z,100.00
2023-08-09T19:34:59.383Z,100.00
2023-08-09T19:37:27.969Z,100.00
2023-08-09T19:39:57.013Z,100.00
2023-08-09T19:42:25.108Z,100.00
2023-08-09T19:44:53.177Z,100.00
2023-08-09T19:47:21.323Z,100.00
2023-08-09T19:49:49.516Z,100.00
2023-08-09T19:52:17.795Z,100.00
2023-08-09T19:54:46.095Z,100.00
2023-08-09T19:57:14.374Z,100.00
2023-08-09T19:59:43.470Z,100.00
2023-08-09T20:02:11.777Z,100.00
2023-08-09T20:04:40.113Z,100.00
2023-08-09T20:07:08.243Z,100.00
2023-08-09T20:09:36.476Z,100.00
2023-08-09T20:12:05.107Z,100.00
2023-08-09T20:14:33.323Z,100.00
2023-08-09T20:17:01.643Z,100.00
2023-08-09T20:19:31.961Z,100.00
2023-08-09T20:22:00.214Z,100.00
2023-08-09T20:24:42.437Z,100.00
2023-08-09T20:27:12.830Z,100.00
2023-08-09T20:29:41.537Z,100.00
2023-08-09T20:32:10.214Z,100.00
2023-08-09T20:34:38.501Z,100.00
2023-08-09T20:37:06.807Z,100.00
2023-08-09T20:39:36.257Z,100.00
2023-08-09T20:42:04.541Z,100.00
2023-08-09T20:44:36.698Z,100.00
2023-08-09T20:47:07.079Z,100.00
2023-08-09T20:49:35.894Z,100.00
2023-08-09T20:52:05.450Z,100.00
2023-08-09T20:54:33.767Z,100.00
2023-08-09T20:57:02.098Z,100.00
2023-08-09T20:59:31.770Z,100.00
2023-08-09T21:02:00.674Z,100.00
2023-08-09T21:04:28.937Z,100.00
2023-08-09T21:06:57.160Z,100.00
2023-08-09T21:09:25.415Z,100.00
2023-08-09T21:11:53.459Z,100.00
2023-08-09T21:14:24.797Z,100.00
2023-08-09T21:16:52.996Z,100.00
2023-08-09T21:19:21.464Z,100.00
2023-08-09T21:21:49.836Z,100.00
2023-08-09T21:26:51.843Z,100.00
2023-08-09T21:29:24.190Z,100.00
2023-08-09T21:31:52.536Z,100.00
2023-08-09T21:34:20.792Z,100.00
2023-08-09T21:36:48.984Z,100.00
2023-08-09T21:39:17.040Z,100.00
2023-08-09T21:41:45.411Z,100.00
2023-08-09T21:44:13.497Z,100.00
2023-08-09T21:46:41.636Z,100.00
2023-08-09T21:49:09.664Z,100.00
2023-08-09T21:51:37.743Z,100.00
2023-08-09T21:54:06.538Z,100.00
2023-08-09T21:56:34.839Z,100.00
2023-08-09T21:59:04.538Z,100.00
2023-08-09T22:01:32.776Z,100.00
2023-08-09T22:04:01.266Z,100.00
2023-08-09T22:06:29.381Z,100.00
2023-08-09T22:08:57.492Z,100.00
2023-08-09T22:11:25.558Z,100.00
2023-08-09T22:13:53.775Z,100.00
2023-08-09T22:16:25.390Z,100.00
2023-08-09T22:18:54.011Z,100.00
2023-08-09T22:21:22.071Z,100.00
2023-08-09T22:23:51.053Z,100.00
2023-08-09T22:26:21.364Z,100.00
2023-08-09T22:28:50.132Z,100.00
2023-08-09T22:31:18.115Z,100.00
2023-08-09T22:33:46.368Z,100.00
2023-08-09T22:36:14.435Z,100.00
2023-08-09T22:38:42.600Z,100.00
2023-08-09T22:41:10.984Z,100.00
2023-08-09T22:43:39.161Z,100.00
2023-08-09T22:46:07.482Z,100.00
2023-08-09T22:48:35.846Z,100.00
2023-08-09T22:51:05.889Z,100.00
2023-08-09T22:53:34.109Z,100.00
2023-08-09T22:56:02.210Z,100.00
2023-08-09T22:58:30.807Z,100.00
2023-08-09T23:01:01.583Z,100.00
2023-08-09T23:03:30.468Z,100.00
2023-08-09T23:05:58.715Z,100.00
2023-08-09T23:08:26.798Z,100.00
2023-08-09T23:10:55.642Z,100.00
2023-08-09T23:13:27.224Z,100.00
2023-08-09T23:15:56.266Z,100.00
2023-08-09T23:18:24.870Z,100.00
2023-08-09T23:20:53.787Z,100.00
2023-08-09T23:23:22.142Z,100.00
2023-08-09T23:25:50.418Z,100.00
2023-08-09T23:28:18.775Z,100.00
2023-08-09T23:30:47.111Z,100.00
2023-08-09T23:33:15.459Z,100.00
2023-08-09T23:35:43.709Z,100.00
2023-08-09T23:38:11.983Z,100.00
2023-08-09T23:40:40.160Z,100.00
2023-08-09T23:43:08.747Z,100.00
2023-08-09T23:45:37.258Z,100.00
2023-08-09T23:48:06.246Z,100.00
2023-08-09T23:50:34.854Z,100.00
2023-08-09T23:53:05.472Z,100.00
2023-08-09T23:55:33.618Z,100.00
2023-08-09T23:58:01.595Z,100.00
